createdAt,value
2017-06-27T00:00:24.104Z,0.00
2017-06-27T00:01:24.140Z,0.00
2017-06-27T00:02:18.202Z,0.00
2017-06-27T00:03:12.255Z,0.00
2017-06-27T00:04:06.247Z,0.00
2017-06-27T00:05:00.321Z,0.00
2017-06-27T00:05:54.362Z,0.00
2017-06-27T00:06:54.345Z,0.00
2017-06-27T00:07:55.433Z,0.00
2017-06-27T00:08:55.453Z,0.00
2017-06-27T00:09:50.437Z,0.00
2017-06-27T00:10:50.493Z,0.00
2017-06-27T00:11:50.490Z,0.00
2017-06-27T00:12:56.529Z,0.00
2017-06-27T00:13:51.594Z,0.00
2017-06-27T00:14:46.618Z,0.00
2017-06-27T00:15:46.623Z,0.00
2017-06-27T00:16:34.669Z,0.00
2017-06-27T00:17:22.811Z,0.00
2017-06-27T00:18:11.707Z,0.00
2017-06-27T00:18:59.843Z,0.00
2017-06-27T00:19:47.872Z,0.00
2017-06-27T00:20:35.959Z,0.00
2017-06-27T00:21:24.947Z,0.00
2017-06-27T00:22:13.078Z,0.00
2017-06-27T00:23:01.061Z,0.00
2017-06-27T00:23:55.066Z,0.00
2017-06-27T00:24:49.145Z,0.00
2017-06-27T00:25:49.160Z,0.00
2017-06-27T00:26:49.161Z,0.00
2017-06-27T00:27:44.240Z,0.00
2017-06-27T00:28:38.182Z,0.00
2017-06-27T00:29:38.257Z,0.00
2017-06-27T00:30:27.343Z,0.00
2017-06-27T00:31:21.318Z,0.00
2017-06-27T00:32:15.445Z,0.00
2017-06-27T00:33:09.470Z,0.00
2017-06-27T00:34:04.476Z,0.00
2017-06-27T00:34:58.517Z,0.00
2017-06-27T00:35:58.494Z,0.00
2017-06-27T00:36:52.614Z,0.00
2017-06-27T00:37:52.591Z,0.00
2017-06-27T00:38:47.628Z,0.00
2017-06-27T00:39:47.697Z,0.00
2017-06-27T00:40:41.707Z,0.00
2017-06-27T00:41:41.910Z,0.00
2017-06-27T00:42:41.752Z,0.00
2017-06-27T00:43:41.797Z,0.00
2017-06-27T00:44:36.888Z,0.00
2017-06-27T00:45:36.858Z,0.00
2017-06-27T00:46:31.048Z,0.00
2017-06-27T00:47:25.938Z,0.00
2017-06-27T00:48:26.980Z,0.00
2017-06-27T00:49:27.336Z,0.00
2017-06-27T00:50:16.037Z,0.00
2017-06-27T00:51:05.106Z,0.00
2017-06-27T00:51:53.102Z,0.00
2017-06-27T00:52:41.143Z,0.00
2017-06-27T00:53:41.241Z,0.00
2017-06-27T00:54:36.195Z,0.00
2017-06-27T00:55:36.351Z,0.00
2017-06-27T00:56:31.412Z,0.00
2017-06-27T00:57:26.343Z,0.00
2017-06-27T00:58:32.979Z,0.00
2017-06-27T00:59:26.501Z,0.00
2017-06-27T01:00:26.423Z,0.00
2017-06-27T01:01:21.867Z,0.00
2017-06-27T01:02:15.509Z,0.00
2017-06-27T01:03:10.516Z,0.00
2017-06-27T01:04:10.544Z,0.00
2017-06-27T01:05:10.571Z,0.00
2017-06-27T01:06:11.114Z,0.00
2017-06-27T01:07:04.674Z,0.00
2017-06-27T01:08:04.765Z,0.00
2017-06-27T01:08:59.727Z,0.00
2017-06-27T01:09:54.787Z,0.00
2017-06-27T01:10:54.800Z,0.00
2017-06-27T01:11:50.095Z,0.00
2017-06-27T01:12:49.829Z,0.00
2017-06-27T01:13:49.955Z,0.00
2017-06-27T01:14:49.962Z,0.00
2017-06-27T01:15:44.092Z,0.00
2017-06-27T01:16:44.560Z,0.00
2017-06-27T01:17:32.089Z,0.00
2017-06-27T01:18:21.099Z,0.00
2017-06-27T01:19:22.135Z,0.00
2017-06-27T01:20:16.182Z,0.00
2017-06-27T01:21:16.213Z,0.00
2017-06-27T01:22:11.252Z,0.00
2017-06-27T01:23:06.252Z,0.00
2017-06-27T01:24:06.240Z,0.00
2017-06-27T01:25:01.332Z,0.00
2017-06-27T01:26:01.325Z,0.00
2017-06-27T01:27:01.449Z,0.00
2017-06-27T01:28:01.428Z,0.00
2017-06-27T01:28:55.455Z,0.00
2017-06-27T01:29:49.484Z,0.00
2017-06-27T01:30:49.504Z,0.00
2017-06-27T01:31:44.065Z,0.00
2017-06-27T01:32:32.652Z,0.00
2017-06-27T01:33:27.647Z,0.00
2017-06-27T01:34:27.642Z,0.00
2017-06-27T01:35:22.724Z,0.00
2017-06-27T01:36:17.766Z,0.00
2017-06-27T01:37:11.741Z,0.00
2017-06-27T01:38:05.832Z,0.00
2017-06-27T01:39:05.802Z,0.00
2017-06-27T01:39:54.875Z,0.00
2017-06-27T01:40:42.951Z,0.00
2017-06-27T01:41:42.952Z,0.00
2017-06-27T01:42:32.568Z,0.00
2017-06-27T01:43:26.038Z,0.00
2017-06-27T01:44:21.068Z,0.00
2017-06-27T01:45:09.159Z,0.00
2017-06-27T01:45:58.290Z,0.00
2017-06-27T01:46:58.171Z,0.00
2017-06-27T01:47:53.181Z,0.00
2017-06-27T01:48:47.273Z,0.00
2017-06-27T01:49:47.266Z,0.00
2017-06-27T01:50:47.335Z,0.00
2017-06-27T01:51:42.302Z,0.00
2017-06-27T01:52:37.398Z,0.00
2017-06-27T01:53:38.403Z,0.00
2017-06-27T01:54:38.431Z,0.00
2017-06-27T01:55:27.484Z,0.00
2017-06-27T01:56:22.528Z,0.00
2017-06-27T01:57:22.544Z,0.00
2017-06-27T01:58:17.634Z,0.00
2017-06-27T01:59:17.631Z,0.00
2017-06-27T02:00:11.694Z,0.00
2017-06-27T02:01:12.652Z,0.00
2017-06-27T02:02:06.691Z,0.00
2017-06-27T02:02:54.780Z,0.00
2017-06-27T02:03:48.879Z,0.00
2017-06-27T02:04:42.794Z,0.00
2017-06-27T02:05:42.960Z,0.00
2017-06-27T02:06:36.909Z,0.00
2017-06-27T02:07:36.971Z,0.00
2017-06-27T02:08:43.032Z,0.00
2017-06-27T02:09:38.025Z,0.00
2017-06-27T02:10:32.536Z,0.00
2017-06-27T02:11:32.056Z,0.00
2017-06-27T02:12:32.101Z,0.00
2017-06-27T02:13:27.199Z,0.00
2017-06-27T02:14:21.187Z,0.00
2017-06-27T02:15:21.191Z,0.00
2017-06-27T02:16:10.240Z,0.00
2017-06-27T02:16:58.317Z,0.00
2017-06-27T02:17:47.344Z,0.00
2017-06-27T02:18:35.345Z,0.00
2017-06-27T02:19:24.418Z,0.00
2017-06-27T02:20:19.449Z,0.00
2017-06-27T02:21:19.508Z,0.00
2017-06-27T02:22:13.528Z,0.00
2017-06-27T02:23:02.528Z,0.00
2017-06-27T02:23:50.694Z,0.00
2017-06-27T02:24:38.637Z,0.00
2017-06-27T02:25:32.715Z,0.00
2017-06-27T02:26:26.744Z,0.00
2017-06-27T02:27:21.878Z,0.00
2017-06-27T02:28:21.895Z,0.00
2017-06-27T02:29:09.798Z,0.00
2017-06-27T02:29:57.857Z,0.00
2017-06-27T02:30:45.965Z,0.00
2017-06-27T02:31:34.006Z,0.00
2017-06-27T02:32:22.006Z,0.00
2017-06-27T02:33:16.006Z,0.00
2017-06-27T02:34:05.123Z,0.00
2017-06-27T02:34:53.170Z,0.00
2017-06-27T02:35:48.206Z,0.00
2017-06-27T02:36:42.240Z,0.00
2017-06-27T02:37:43.223Z,0.00
2017-06-27T02:38:43.240Z,0.00
2017-06-27T02:39:43.688Z,0.00
2017-06-27T02:40:37.364Z,0.00
2017-06-27T02:41:31.357Z,0.00
2017-06-27T02:42:25.395Z,0.00
2017-06-27T02:43:25.491Z,0.00
2017-06-27T02:44:14.447Z,0.00
2017-06-27T02:45:02.838Z,0.00
2017-06-27T02:45:57.571Z,0.00
2017-06-27T02:46:52.588Z,0.00
2017-06-27T02:47:46.677Z,0.00
2017-06-27T02:48:52.692Z,0.00
2017-06-27T02:49:52.686Z,0.00
2017-06-27T02:50:47.763Z,0.00
2017-06-27T02:51:41.750Z,0.00
2017-06-27T02:52:35.765Z,0.00
2017-06-27T02:53:29.827Z,0.00
2017-06-27T02:54:35.853Z,0.00
2017-06-27T02:55:35.908Z,0.00
2017-06-27T02:56:35.973Z,0.00
2017-06-27T02:57:30.017Z,0.00
2017-06-27T02:58:19.010Z,0.00
2017-06-27T02:59:20.027Z,0.00
2017-06-27T03:00:14.083Z,0.00
2017-06-27T03:01:14.089Z,0.00
2017-06-27T03:02:09.087Z,0.00
2017-06-27T03:02:58.110Z,0.00
2017-06-27T03:03:47.244Z,0.00
2017-06-27T03:04:35.209Z,0.00
2017-06-27T03:05:23.294Z,0.00
2017-06-27T03:06:18.368Z,0.00
2017-06-27T03:07:24.333Z,0.00
2017-06-27T03:08:19.377Z,0.01
2017-06-27T03:09:13.393Z,0.01
2017-06-27T03:10:14.413Z,0.01
2017-06-27T03:11:10.023Z,0.01
2017-06-27T03:12:03.495Z,0.01
2017-06-27T03:13:04.592Z,0.01
2017-06-27T03:14:04.628Z,0.01
2017-06-27T03:14:59.610Z,0.01
2017-06-27T03:15:54.675Z,0.01
2017-06-27T03:16:54.721Z,0.01
2017-06-27T03:17:49.694Z,0.01
2017-06-27T03:18:37.812Z,0.01
2017-06-27T03:19:31.849Z,0.01
2017-06-27T03:20:25.854Z,0.01
2017-06-27T03:21:25.901Z,0.01
2017-06-27T03:22:25.968Z,0.02
2017-06-27T03:23:25.941Z,0.02
2017-06-27T03:24:15.041Z,0.02
2017-06-27T03:25:03.032Z,0.02
2017-06-27T03:25:51.072Z,0.02
2017-06-27T03:26:46.120Z,0.02
2017-06-27T03:27:35.139Z,0.02
2017-06-27T03:28:29.178Z,0.02
2017-06-27T03:29:17.282Z,0.02
2017-06-27T03:30:05.217Z,0.02
2017-06-27T03:30:59.292Z,0.02
2017-06-27T03:31:59.320Z,0.02
2017-06-27T03:32:54.363Z,0.02
2017-06-27T03:33:48.420Z,0.02
2017-06-27T03:34:37.444Z,0.02
2017-06-27T03:35:32.534Z,0.02
2017-06-27T03:36:32.486Z,0.02
2017-06-27T03:37:27.536Z,0.02
2017-06-27T03:38:22.625Z,0.03
2017-06-27T03:39:16.670Z,0.03
2017-06-27T03:40:05.683Z,0.03
2017-06-27T03:40:54.775Z,0.03
2017-06-27T03:41:43.749Z,0.03
2017-06-27T03:42:37.792Z,0.03
2017-06-27T03:43:32.835Z,0.03
2017-06-27T03:44:32.912Z,0.03
2017-06-27T03:45:22.747Z,0.03
2017-06-27T03:46:22.945Z,0.03
2017-06-27T03:47:16.995Z,0.04
2017-06-27T03:48:17.062Z,0.04
2017-06-27T03:49:18.046Z,0.04
2017-06-27T03:50:13.122Z,0.04
2017-06-27T03:51:07.803Z,0.04
2017-06-27T03:52:07.127Z,0.04
2017-06-27T03:53:01.162Z,0.05
2017-06-27T03:53:56.240Z,0.05
2017-06-27T03:54:56.234Z,0.05
2017-06-27T03:55:51.284Z,0.05
2017-06-27T03:56:46.338Z,0.05
2017-06-27T03:57:34.408Z,0.05
2017-06-27T03:58:29.051Z,0.05
2017-06-27T03:59:17.434Z,0.05
2017-06-27T04:00:11.555Z,0.05
2017-06-27T04:01:06.009Z,0.05
2017-06-27T04:02:06.429Z,0.05
2017-06-27T04:03:00.585Z,0.05
2017-06-27T04:03:54.628Z,0.05
2017-06-27T04:04:43.696Z,0.05
2017-06-27T04:05:38.721Z,0.05
2017-06-27T04:06:38.740Z,0.05
2017-06-27T04:07:33.824Z,0.05
2017-06-27T04:08:28.872Z,0.05
2017-06-27T04:09:17.824Z,0.05
2017-06-27T04:10:17.899Z,0.05
2017-06-27T04:11:07.574Z,0.05
2017-06-27T04:12:01.986Z,0.05
2017-06-27T04:12:51.031Z,0.05
2017-06-27T04:13:39.084Z,0.06
2017-06-27T04:14:34.163Z,0.06
2017-06-27T04:15:35.122Z,0.06
2017-06-27T04:16:29.221Z,0.06
2017-06-27T04:17:23.200Z,0.06
2017-06-27T04:18:23.332Z,0.06
2017-06-27T04:19:23.353Z,0.06
2017-06-27T04:20:11.346Z,0.06
2017-06-27T04:20:59.432Z,0.06
2017-06-27T04:21:53.453Z,0.07
2017-06-27T04:22:42.499Z,0.07
2017-06-27T04:23:37.483Z,0.07
2017-06-27T04:24:26.528Z,0.07
2017-06-27T04:25:20.542Z,0.07
2017-06-27T04:26:20.694Z,0.07
2017-06-27T04:27:09.613Z,0.07
2017-06-27T04:28:09.681Z,0.08
2017-06-27T04:29:09.723Z,0.08
2017-06-27T04:30:04.749Z,0.08
2017-06-27T04:31:05.441Z,0.08
2017-06-27T04:31:59.864Z,0.08
2017-06-27T04:32:54.842Z,0.09
2017-06-27T04:33:54.924Z,0.09
2017-06-27T04:34:48.993Z,0.09
2017-06-27T04:35:49.032Z,0.09
2017-06-27T04:36:49.040Z,0.09
2017-06-27T04:37:43.052Z,0.09
2017-06-27T04:38:44.118Z,0.10
2017-06-27T04:39:33.171Z,0.10
2017-06-27T04:40:27.169Z,0.09
2017-06-27T04:41:22.197Z,0.09
2017-06-27T04:42:22.226Z,0.10
2017-06-27T04:43:17.259Z,0.10
2017-06-27T04:44:12.339Z,0.11
2017-06-27T04:45:12.296Z,0.10
2017-06-27T04:46:08.080Z,0.10
2017-06-27T04:47:02.454Z,0.10
2017-06-27T04:47:56.492Z,0.10
2017-06-27T04:48:50.514Z,0.11
2017-06-27T04:49:44.495Z,0.11
2017-06-27T04:50:44.570Z,0.11
2017-06-27T04:51:38.709Z,0.11
2017-06-27T04:52:32.685Z,0.11
2017-06-27T04:53:26.687Z,0.11
2017-06-27T04:54:21.873Z,0.11
2017-06-27T04:55:21.739Z,0.11
2017-06-27T04:56:16.852Z,0.11
2017-06-27T04:57:11.893Z,0.11
2017-06-27T04:58:05.851Z,0.12
2017-06-27T04:59:05.983Z,0.13
2017-06-27T05:00:01.018Z,0.12
2017-06-27T05:00:55.082Z,0.14
2017-06-27T05:01:55.035Z,0.13
2017-06-27T05:02:49.116Z,0.14
2017-06-27T05:03:43.125Z,0.14
2017-06-27T05:04:37.189Z,0.14
2017-06-27T05:05:31.196Z,0.14
2017-06-27T05:06:26.918Z,0.14
2017-06-27T05:07:21.332Z,0.15
2017-06-27T05:08:15.511Z,0.14
2017-06-27T05:09:04.427Z,0.14
2017-06-27T05:09:59.403Z,0.14
2017-06-27T05:10:54.502Z,0.16
2017-06-27T05:11:48.549Z,0.16
2017-06-27T05:12:48.533Z,0.16
2017-06-27T05:13:43.651Z,0.17
2017-06-27T05:14:32.671Z,0.19
2017-06-27T05:15:21.688Z,0.19
2017-06-27T05:16:16.729Z,0.20
2017-06-27T05:17:17.722Z,0.18
2017-06-27T05:18:12.814Z,0.18
2017-06-27T05:19:01.871Z,0.20
2017-06-27T05:19:55.942Z,0.21
2017-06-27T05:20:49.905Z,0.21
2017-06-27T05:21:45.021Z,0.25
2017-06-27T05:22:45.038Z,0.28
2017-06-27T05:23:45.080Z,0.22
2017-06-27T05:24:45.231Z,0.23
2017-06-27T05:25:40.183Z,0.30
2017-06-27T05:26:35.201Z,0.22
2017-06-27T05:27:29.234Z,0.23
2017-06-27T05:28:18.271Z,0.27
2017-06-27T05:29:06.337Z,0.31
2017-06-27T05:30:06.353Z,0.32
2017-06-27T05:31:01.376Z,0.25
2017-06-27T05:31:56.520Z,0.28
2017-06-27T05:32:56.484Z,0.30
2017-06-27T05:33:51.531Z,0.26
2017-06-27T05:34:46.610Z,0.23
2017-06-27T05:35:46.629Z,0.22
2017-06-27T05:36:41.646Z,0.25
2017-06-27T05:37:41.705Z,0.27
2017-06-27T05:38:35.729Z,0.23
2017-06-27T05:39:29.757Z,0.28
2017-06-27T05:40:18.842Z,0.29
2017-06-27T05:41:14.777Z,0.22
2017-06-27T05:42:13.932Z,0.24
2017-06-27T05:43:09.004Z,0.38
2017-06-27T05:43:58.044Z,0.37
2017-06-27T05:44:52.048Z,0.33
2017-06-27T05:45:53.130Z,0.41
2017-06-27T05:46:54.161Z,0.35
2017-06-27T05:47:43.153Z,0.25
2017-06-27T05:48:38.276Z,0.28
2017-06-27T05:49:32.290Z,0.26
2017-06-27T05:50:26.900Z,0.33
2017-06-27T05:51:21.401Z,0.35
2017-06-27T05:52:10.473Z,0.33
2017-06-27T05:53:05.437Z,0.28
2017-06-27T05:53:59.515Z,0.26
2017-06-27T05:54:54.571Z,0.24
2017-06-27T05:55:54.638Z,0.29
2017-06-27T05:56:54.627Z,0.31
2017-06-27T05:57:54.721Z,0.27
2017-06-27T05:58:54.743Z,0.26
2017-06-27T05:59:54.830Z,0.24
2017-06-27T06:00:54.921Z,0.26
2017-06-27T06:01:54.931Z,0.29
2017-06-27T06:02:49.018Z,0.26
2017-06-27T06:03:43.922Z,0.27
2017-06-27T06:04:38.036Z,0.26
2017-06-27T06:05:38.047Z,0.22
2017-06-27T06:06:32.117Z,0.22
2017-06-27T06:07:26.153Z,0.22
2017-06-27T06:08:26.216Z,0.22
2017-06-27T06:09:20.306Z,0.22
2017-06-27T06:10:20.281Z,0.22
2017-06-27T06:11:14.939Z,0.22
2017-06-27T06:12:14.328Z,0.22
2017-06-27T06:13:08.435Z,0.22
2017-06-27T06:14:09.429Z,0.22
2017-06-27T06:15:03.609Z,0.21
2017-06-27T06:15:51.596Z,0.21
2017-06-27T06:16:46.627Z,0.22
2017-06-27T06:17:47.617Z,0.23
2017-06-27T06:18:42.714Z,0.25
2017-06-27T06:19:37.744Z,0.23
2017-06-27T06:20:32.765Z,0.24
2017-06-27T06:21:21.837Z,0.25
2017-06-27T06:22:16.880Z,0.27
2017-06-27T06:23:16.940Z,0.24
2017-06-27T06:24:10.933Z,0.25
2017-06-27T06:25:11.050Z,0.26
2017-06-27T06:26:06.703Z,0.26
2017-06-27T06:27:06.087Z,0.29
2017-06-27T06:27:55.109Z,0.30
2017-06-27T06:28:44.215Z,0.36
2017-06-27T06:29:33.201Z,0.34
2017-06-27T06:30:27.283Z,0.29
2017-06-27T06:31:16.977Z,0.35
2017-06-27T06:32:11.334Z,0.28
2017-06-27T06:33:11.527Z,0.31
2017-06-27T06:34:05.476Z,0.30
2017-06-27T06:34:59.536Z,0.35
2017-06-27T06:35:59.565Z,0.30
2017-06-27T06:36:53.592Z,0.29
2017-06-27T06:37:47.655Z,0.29
2017-06-27T06:38:47.655Z,0.32
2017-06-27T06:39:41.751Z,0.34
2017-06-27T06:40:42.756Z,0.40
2017-06-27T06:41:37.812Z,0.45
2017-06-27T06:42:26.896Z,0.43
2017-06-27T06:43:22.126Z,0.53
2017-06-27T06:44:16.435Z,0.44
2017-06-27T06:45:11.035Z,0.45
2017-06-27T06:46:11.746Z,0.42
2017-06-27T06:47:05.095Z,0.44
2017-06-27T06:48:05.190Z,0.47
2017-06-27T06:48:54.209Z,0.39
2017-06-27T06:49:48.245Z,0.43
2017-06-27T06:50:48.283Z,0.49
2017-06-27T06:51:37.597Z,0.40
2017-06-27T06:52:37.400Z,0.36
2017-06-27T06:53:37.471Z,0.30
2017-06-27T06:54:26.530Z,0.29
2017-06-27T06:55:27.592Z,0.29
2017-06-27T06:56:22.088Z,0.35
2017-06-27T06:57:10.656Z,0.35
2017-06-27T06:58:04.724Z,0.31
2017-06-27T06:59:04.792Z,0.30
2017-06-27T06:59:58.795Z,0.30
2017-06-27T07:00:58.850Z,0.29
2017-06-27T07:01:52.919Z,0.29
2017-06-27T07:02:52.928Z,0.34
2017-06-27T07:03:47.964Z,0.31
2017-06-27T07:04:42.066Z,0.31
2017-06-27T07:05:42.095Z,0.31
2017-06-27T07:06:37.172Z,0.31
2017-06-27T07:07:31.201Z,0.31
2017-06-27T07:08:25.235Z,0.31
2017-06-27T07:09:25.269Z,0.31
2017-06-27T07:10:25.551Z,0.31
2017-06-27T07:11:19.536Z,0.30
2017-06-27T07:12:13.458Z,0.30
2017-06-27T07:13:07.494Z,0.29
2017-06-27T07:14:08.573Z,0.29
2017-06-27T07:15:03.585Z,0.27
2017-06-27T07:15:57.647Z,0.27
2017-06-27T07:16:57.685Z,0.30
2017-06-27T07:17:51.740Z,0.27
2017-06-27T07:18:45.720Z,0.27
2017-06-27T07:19:46.888Z,0.28
2017-06-27T07:20:46.886Z,0.28
2017-06-27T07:21:41.954Z,0.31
2017-06-27T07:22:35.982Z,0.32
2017-06-27T07:23:31.033Z,0.34
2017-06-27T07:24:25.062Z,0.33
2017-06-27T07:25:25.079Z,0.31
2017-06-27T07:26:19.618Z,0.33
2017-06-27T07:27:20.484Z,0.33
2017-06-27T07:28:20.548Z,0.30
2017-06-27T07:29:14.292Z,0.29
2017-06-27T07:30:14.371Z,0.30
2017-06-27T07:31:09.019Z,0.29
2017-06-27T07:32:03.455Z,0.34
2017-06-27T07:33:03.713Z,0.33
2017-06-27T07:33:57.542Z,0.33
2017-06-27T07:34:52.538Z,0.34
2017-06-27T07:35:41.639Z,0.36
2017-06-27T07:36:35.627Z,0.43
2017-06-27T07:37:35.724Z,0.40
2017-06-27T07:38:31.318Z,0.43
2017-06-27T07:39:19.818Z,0.46
2017-06-27T07:40:14.834Z,0.52
2017-06-27T07:41:02.978Z,0.54
2017-06-27T07:41:56.905Z,0.49
2017-06-27T07:42:51.016Z,0.42
2017-06-27T07:43:40.936Z,0.42
2017-06-27T07:44:40.191Z,0.42
2017-06-27T07:45:34.225Z,0.50
2017-06-27T07:46:34.761Z,0.40
2017-06-27T07:47:28.247Z,0.41
2017-06-27T07:48:22.335Z,0.35
2017-06-27T07:49:11.614Z,0.33
2017-06-27T07:50:05.428Z,0.34
2017-06-27T07:51:05.445Z,0.32
2017-06-27T07:52:05.521Z,0.38
2017-06-27T07:53:00.583Z,0.30
2017-06-27T07:54:00.631Z,0.29
2017-06-27T07:54:55.667Z,0.29
2017-06-27T07:55:49.719Z,0.29
2017-06-27T07:56:49.982Z,0.29
2017-06-27T07:57:38.842Z,0.29
2017-06-27T07:58:33.823Z,0.29
2017-06-27T07:59:33.897Z,0.28
2017-06-27T08:00:27.950Z,0.28
2017-06-27T08:01:22.964Z,0.29
2017-06-27T08:02:18.099Z,0.30
2017-06-27T08:03:12.177Z,0.30
2017-06-27T08:04:07.167Z,0.31
2017-06-27T08:04:56.256Z,0.32
2017-06-27T08:05:44.292Z,0.32
2017-06-27T08:06:45.326Z,0.33
2017-06-27T08:07:39.456Z,0.34
2017-06-27T08:08:33.439Z,0.34
2017-06-27T08:09:21.441Z,0.38
2017-06-27T08:10:15.521Z,0.37
2017-06-27T08:11:11.075Z,0.36
2017-06-27T08:12:04.650Z,0.36
2017-06-27T08:12:59.668Z,0.37
2017-06-27T08:13:47.727Z,0.38
2017-06-27T08:14:36.764Z,0.39
2017-06-27T08:15:31.859Z,0.42
2017-06-27T08:16:21.132Z,0.45
2017-06-27T08:17:15.958Z,0.45
2017-06-27T08:18:04.976Z,0.43
2017-06-27T08:19:00.028Z,0.42
2017-06-27T08:19:54.106Z,0.36
2017-06-27T08:20:49.063Z,0.36
2017-06-27T08:21:37.179Z,0.36
2017-06-27T08:22:31.215Z,0.36
2017-06-27T08:23:31.270Z,0.36
2017-06-27T08:24:25.331Z,0.37
2017-06-27T08:25:20.398Z,0.38
2017-06-27T08:26:16.024Z,0.38
2017-06-27T08:27:04.768Z,0.39
2017-06-27T08:27:58.524Z,0.39
2017-06-27T08:28:58.587Z,0.40
2017-06-27T08:29:52.609Z,0.41
2017-06-27T08:30:47.649Z,0.45
2017-06-27T08:31:41.736Z,0.40
2017-06-27T08:32:35.812Z,0.40
2017-06-27T08:33:35.875Z,0.41
2017-06-27T08:34:30.895Z,0.40
2017-06-27T08:35:18.999Z,0.40
2017-06-27T08:36:19.500Z,0.40
2017-06-27T08:37:14.007Z,0.40
2017-06-27T08:38:08.153Z,0.41
2017-06-27T08:39:08.121Z,0.41
2017-06-27T08:39:57.188Z,0.41
2017-06-27T08:40:57.220Z,0.42
2017-06-27T08:41:51.665Z,0.44
2017-06-27T08:42:39.347Z,0.43
2017-06-27T08:43:34.795Z,0.47
2017-06-27T08:44:29.389Z,0.45
2017-06-27T08:45:23.469Z,0.45
2017-06-27T08:46:19.151Z,0.46
2017-06-27T08:47:13.609Z,0.50
2017-06-27T08:48:07.625Z,0.50
2017-06-27T08:49:02.001Z,0.54
2017-06-27T08:49:57.212Z,0.52
2017-06-27T08:50:56.865Z,0.51
2017-06-27T08:51:51.906Z,0.48
2017-06-27T08:52:46.032Z,0.51
2017-06-27T08:53:45.974Z,0.49
2017-06-27T08:54:41.129Z,0.57
2017-06-27T08:55:30.021Z,0.62
2017-06-27T08:56:30.495Z,0.55
2017-06-27T08:57:24.688Z,0.47
2017-06-27T08:58:24.206Z,0.47
2017-06-27T08:59:18.210Z,0.46
2017-06-27T09:00:07.639Z,0.45
2017-06-27T09:01:07.393Z,0.46
2017-06-27T09:02:02.761Z,0.47
2017-06-27T09:02:56.823Z,0.45
2017-06-27T09:03:44.769Z,0.43
2017-06-27T09:04:33.896Z,0.42
2017-06-27T09:05:28.004Z,0.40
2017-06-27T09:06:22.088Z,0.40
2017-06-27T09:07:17.181Z,0.39
2017-06-27T09:08:11.305Z,0.38
2017-06-27T09:09:05.878Z,0.37
2017-06-27T09:10:00.458Z,0.36
2017-06-27T09:10:49.247Z,0.36
2017-06-27T09:11:37.057Z,0.35
2017-06-27T09:12:32.132Z,0.36
2017-06-27T09:13:32.115Z,0.38
2017-06-27T09:14:27.188Z,0.36
2017-06-27T09:15:21.286Z,0.35
2017-06-27T09:16:21.319Z,0.35
2017-06-27T09:17:15.347Z,0.35
2017-06-27T09:18:15.401Z,0.36
2017-06-27T09:19:04.532Z,0.36
2017-06-27T09:19:58.571Z,0.36
2017-06-27T09:20:58.532Z,0.36
2017-06-27T09:21:47.619Z,0.36
2017-06-27T09:22:42.667Z,0.35
2017-06-27T09:23:43.011Z,0.35
2017-06-27T09:24:31.732Z,0.34
2017-06-27T09:25:25.801Z,0.34
2017-06-27T09:26:25.832Z,0.34
2017-06-27T09:27:19.949Z,0.34
2017-06-27T09:28:19.933Z,0.33
2017-06-27T09:29:13.998Z,0.34
2017-06-27T09:30:15.028Z,0.34
2017-06-27T09:31:15.754Z,0.34
2017-06-27T09:32:10.490Z,0.34
2017-06-27T09:33:04.242Z,0.36
2017-06-27T09:33:59.228Z,0.35
2017-06-27T09:34:53.373Z,0.35
2017-06-27T09:35:42.359Z,0.35
2017-06-27T09:36:37.385Z,0.35
2017-06-27T09:37:26.480Z,0.35
2017-06-27T09:38:26.509Z,0.35
2017-06-27T09:39:20.667Z,0.35
2017-06-27T09:40:20.642Z,0.36
2017-06-27T09:41:15.264Z,0.36
2017-06-27T09:42:03.722Z,0.36
2017-06-27T09:43:03.729Z,0.36
2017-06-27T09:43:57.852Z,0.37
2017-06-27T09:44:46.901Z,0.37
2017-06-27T09:45:40.940Z,0.38
2017-06-27T09:46:35.482Z,0.38
2017-06-27T09:47:29.052Z,0.38
2017-06-27T09:48:23.128Z,0.37
2017-06-27T09:49:17.217Z,0.37
2017-06-27T09:50:11.226Z,0.37
2017-06-27T09:51:05.813Z,0.37
2017-06-27T09:51:59.327Z,0.36
2017-06-27T09:52:54.415Z,0.36
2017-06-27T09:53:48.441Z,0.37
2017-06-27T09:54:48.429Z,0.37
2017-06-27T09:55:44.006Z,0.37
2017-06-27T09:56:43.565Z,0.38
2017-06-27T09:57:43.641Z,0.38
2017-06-27T09:58:37.617Z,0.38
2017-06-27T09:59:32.755Z,0.39
2017-06-27T10:00:26.786Z,0.38
2017-06-27T10:01:21.276Z,0.38
2017-06-27T10:02:14.894Z,0.38
2017-06-27T10:03:03.951Z,0.37
2017-06-27T10:03:58.957Z,0.37
2017-06-27T10:04:53.067Z,0.36
2017-06-27T10:05:48.145Z,0.36
2017-06-27T10:06:43.118Z,0.36
2017-06-27T10:07:31.223Z,0.36
2017-06-27T10:08:26.257Z,0.36
2017-06-27T10:09:27.850Z,0.36
2017-06-27T10:10:22.325Z,0.37
2017-06-27T10:11:18.040Z,0.37
2017-06-27T10:12:11.433Z,0.38
2017-06-27T10:13:11.820Z,0.39
2017-06-27T10:13:59.521Z,0.40
2017-06-27T10:15:00.619Z,0.41
2017-06-27T10:15:48.637Z,0.43
2017-06-27T10:16:37.717Z,0.43
2017-06-27T10:17:27.779Z,0.43
2017-06-27T10:18:21.874Z,0.43
2017-06-27T10:19:10.469Z,0.44
2017-06-27T10:19:58.941Z,0.45
2017-06-27T10:20:52.929Z,0.45
2017-06-27T10:21:47.395Z,0.46
2017-06-27T10:22:36.117Z,0.46
2017-06-27T10:23:36.596Z,0.47
2017-06-27T10:24:30.238Z,0.48
2017-06-27T10:25:19.218Z,0.50
2017-06-27T10:26:13.969Z,0.50
2017-06-27T10:27:01.394Z,0.51
2017-06-27T10:27:55.413Z,0.55
2017-06-27T10:28:49.482Z,0.63
2017-06-27T10:29:43.559Z,0.54
2017-06-27T10:30:38.584Z,0.51
2017-06-27T10:31:27.645Z,0.75
2017-06-27T10:32:16.675Z,0.51
2017-06-27T10:33:10.736Z,0.47
2017-06-27T10:34:05.768Z,0.46
2017-06-27T10:34:59.862Z,0.46
2017-06-27T10:35:53.925Z,0.47
2017-06-27T10:36:47.903Z,0.51
2017-06-27T10:37:42.114Z,0.51
2017-06-27T10:38:36.077Z,0.51
2017-06-27T10:39:31.178Z,0.50
2017-06-27T10:40:31.699Z,0.45
2017-06-27T10:41:31.221Z,0.44
2017-06-27T10:42:31.305Z,0.45
2017-06-27T10:43:26.344Z,0.43
2017-06-27T10:44:14.486Z,0.42
2017-06-27T10:45:03.478Z,0.41
2017-06-27T10:45:58.702Z,0.40
2017-06-27T10:46:53.060Z,0.40
2017-06-27T10:47:53.662Z,0.40
2017-06-27T10:48:48.658Z,0.40
2017-06-27T10:49:42.766Z,0.39
2017-06-27T10:50:36.762Z,0.38
2017-06-27T10:51:37.436Z,0.38
2017-06-27T10:52:37.103Z,0.38
2017-06-27T10:53:37.013Z,0.37
2017-06-27T10:54:37.087Z,0.37
2017-06-27T10:55:37.056Z,0.36
2017-06-27T10:56:37.076Z,0.36
2017-06-27T10:57:37.526Z,0.36
2017-06-27T10:58:31.739Z,0.35
2017-06-27T10:59:32.540Z,0.35
2017-06-27T11:00:27.382Z,0.36
2017-06-27T11:01:23.133Z,0.35
2017-06-27T11:02:18.016Z,0.36
2017-06-27T11:03:11.442Z,0.36
2017-06-27T11:04:06.568Z,0.36
2017-06-27T11:05:06.575Z,0.36
2017-06-27T11:06:02.238Z,0.35
2017-06-27T11:06:57.159Z,0.36
2017-06-27T11:07:45.696Z,0.36
2017-06-27T11:08:39.768Z,0.36
2017-06-27T11:09:34.809Z,0.36
2017-06-27T11:10:23.846Z,0.36
2017-06-27T11:11:19.580Z,0.35
2017-06-27T11:12:07.158Z,0.35
2017-06-27T11:13:01.070Z,0.35
2017-06-27T11:13:55.129Z,0.35
2017-06-27T11:14:49.135Z,0.35
2017-06-27T11:15:49.237Z,0.35
2017-06-27T11:16:44.566Z,0.35
2017-06-27T11:17:38.949Z,0.36
2017-06-27T11:18:38.341Z,0.36
2017-06-27T11:19:33.427Z,0.36
2017-06-27T11:20:28.456Z,0.37
2017-06-27T11:21:23.703Z,0.34
2017-06-27T11:22:18.468Z,0.38
2017-06-27T11:23:12.629Z,0.39
2017-06-27T11:24:06.664Z,0.40
2017-06-27T11:25:00.734Z,0.40
2017-06-27T11:25:54.760Z,0.42
2017-06-27T11:26:43.845Z,0.43
2017-06-27T11:27:32.972Z,0.44
2017-06-27T11:28:32.924Z,0.44
2017-06-27T11:29:26.984Z,0.43
2017-06-27T11:30:21.037Z,0.44
2017-06-27T11:31:21.698Z,0.44
2017-06-27T11:32:16.140Z,0.45
2017-06-27T11:33:10.220Z,0.46
2017-06-27T11:34:04.286Z,0.47
2017-06-27T11:34:58.325Z,0.47
2017-06-27T11:35:47.353Z,0.45
2017-06-27T11:36:35.411Z,0.45
2017-06-27T11:37:29.521Z,0.45
2017-06-27T11:38:23.558Z,0.44
2017-06-27T11:39:17.606Z,0.44
2017-06-27T11:40:11.672Z,0.43
2017-06-27T11:41:06.231Z,0.43
2017-06-27T11:41:59.714Z,0.42
2017-06-27T11:42:59.788Z,0.42
2017-06-27T11:43:59.901Z,0.41
2017-06-27T11:45:00.243Z,0.41
2017-06-27T11:45:53.979Z,0.41
2017-06-27T11:46:43.026Z,0.41
2017-06-27T11:47:43.050Z,0.41
2017-06-27T11:48:37.107Z,0.41
2017-06-27T11:49:31.477Z,0.41
2017-06-27T11:50:31.723Z,0.40
2017-06-27T11:51:25.432Z,0.41
2017-06-27T11:52:25.329Z,0.40
2017-06-27T11:53:14.408Z,0.40
2017-06-27T11:54:03.460Z,0.40
2017-06-27T11:54:51.494Z,0.40
2017-06-27T11:55:46.547Z,0.40
2017-06-27T11:56:40.607Z,0.40
2017-06-27T11:57:28.673Z,0.40
2017-06-27T11:58:22.722Z,0.40
2017-06-27T11:59:11.788Z,0.40
2017-06-27T12:00:01.270Z,0.40
2017-06-27T12:00:55.859Z,0.40
2017-06-27T12:01:50.963Z,0.40
2017-06-27T12:02:45.037Z,0.40
2017-06-27T12:03:40.024Z,0.40
2017-06-27T12:04:35.121Z,0.41
2017-06-27T12:05:30.416Z,0.41
2017-06-27T12:06:25.146Z,0.41
2017-06-27T12:07:19.251Z,0.42
2017-06-27T12:08:14.350Z,0.42
2017-06-27T12:09:03.349Z,0.43
2017-06-27T12:09:57.662Z,0.43
2017-06-27T12:10:51.525Z,0.42
2017-06-27T12:11:45.560Z,0.41